Time;durP1;ratioP1;P1;durP2;ratioP2;P2;SDS_P1;SDS_P2;PMS_P1;PMS_P2;Temp;Humidity;BMP_temperature;BMP_pressure;BME280_temperature;BME280_humidity;BME280_pressure;Samples;Min_cycle;Max_cycle;Signal;HPM_P1;HPM_P2
2023/11/12 00:00:42;;;;;;;4.50;3.05;;;8.80;99.90;;;;;;5069455;28;20412;-35
2023/11/12 00:03:11;;;;;;;4.85;3.20;;;8.80;99.90;;;;;;5041807;28;20472;-36
2023/11/12 00:05:37;;;;;;;3.75;3.42;;;8.80;99.90;;;;;;5065790;28;20027;-36
2023/11/12 00:08:03;;;;;;;4.28;3.63;;;8.70;99.90;;;;;;5063544;28;20032;-37
2023/11/12 00:10:28;;;;;;;4.63;3.58;;;8.70;99.90;;;;;;5068634;28;20016;-36
2023/11/12 00:12:54;;;;;;;4.20;3.58;;;8.70;99.90;;;;;;5065278;28;20426;-37
2023/11/12 00:15:20;;;;;;;5.18;3.45;;;8.80;99.90;;;;;;5066496;28;20111;-35
2023/11/12 00:17:46;;;;;;;5.85;3.92;;;8.80;99.90;;;;;;5068291;28;20415;-37
2023/11/12 00:20:15;;;;;;;4.28;3.63;;;8.70;99.90;;;;;;5062751;28;20031;-36
2023/11/12 00:22:41;;;;;;;4.97;4.20;;;8.70;99.90;;;;;;5071081;28;20039;-40
2023/11/12 00:25:09;;;;;;;5.00;3.67;;;8.70;99.90;;;;;;5062479;28;20075;-37
2023/11/12 00:27:38;;;;;;;4.07;3.58;;;8.80;99.90;;;;;;5071847;28;20495;-36
2023/11/12 00:30:05;;;;;;;5.35;3.55;;;8.80;99.90;;;;;;5062424;28;20016;-37
2023/11/12 00:32:32;;;;;;;4.07;3.67;;;8.80;99.90;;;;;;5072399;28;20017;-36
2023/11/12 00:34:57;;;;;;;4.03;3.63;;;8.70;99.90;;;;;;5060043;28;20031;-37
2023/11/12 00:37:23;;;;;;;4.30;3.90;;;8.70;99.90;;;;;;5065427;28;20021;-35
2023/11/12 00:39:49;;;;;;;4.97;4.07;;;8.80;99.90;;;;;;5079853;28;20028;-37
2023/11/12 00:42:14;;;;;;;5.10;3.78;;;8.70;99.90;;;;;;5065794;28;20048;-37
2023/11/12 00:44:40;;;;;;;5.40;4.00;;;8.70;99.90;;;;;;5079575;28;20039;-36
2023/11/12 00:47:06;;;;;;;5.10;4.00;;;8.70;99.90;;;;;;5075329;28;20028;-36
2023/11/12 00:49:31;;;;;;;4.82;3.90;;;8.70;99.90;;;;;;5061113;28;20053;-37
2023/11/12 00:51:57;;;;;;;5.90;4.07;;;8.70;99.90;;;;;;5069399;28;20032;-35
2023/11/12 00:54:22;;;;;;;4.70;4.07;;;8.60;99.90;;;;;;5064333;28;20020;-37
2023/11/12 00:56:48;;;;;;;4.82;4.22;;;8.50;99.90;;;;;;5066555;28;20032;-37
2023/11/12 00:59:14;;;;;;;4.47;3.85;;;8.40;99.90;;;;;;5066905;28;20024;-35
2023/11/12 01:01:39;;;;;;;6.35;4.90;;;8.30;99.90;;;;;;5045357;28;20072;-36
2023/11/12 01:04:05;;;;;;;4.80;4.28;;;8.30;99.90;;;;;;5073705;28;20460;-35
2023/11/12 01:06:31;;;;;;;4.97;4.25;;;8.20;99.90;;;;;;5065349;28;20059;-35
2023/11/12 01:08:56;;;;;;;5.20;4.70;;;8.10;99.90;;;;;;5074554;28;20043;-36
2023/11/12 01:11:22;;;;;;;6.88;4.30;;;8.00;99.90;;;;;;5069028;28;20027;-35
2023/11/12 01:13:49;;;;;;;5.88;4.95;;;8.00;99.90;;;;;;5075739;28;20034;-36
2023/11/12 01:16:15;;;;;;;5.53;4.57;;;8.00;99.90;;;;;;5083409;28;20039;-35
2023/11/12 01:18:41;;;;;;;5.82;4.60;;;7.90;99.90;;;;;;5077321;28;20016;-36
2023/11/12 01:21:10;;;;;;;5.38;4.75;;;7.90;99.90;;;;;;5084234;28;20121;-34
2023/11/12 01:23:39;;;;;;;7.13;4.45;;;7.80;99.90;;;;;;5070786;28;20032;-36
2023/11/12 01:26:04;;;;;;;5.78;4.78;;;7.80;99.90;;;;;;5083707;28;20024;-38
2023/11/12 01:28:34;;;;;;;5.40;4.82;;;7.70;99.90;;;;;;5070817;28;20020;-38
2023/11/12 01:31:01;;;;;;;6.57;4.65;;;7.70;99.90;;;;;;5073078;28;20511;-36
2023/11/12 01:33:28;;;;;;;5.50;4.82;;;7.70;99.90;;;;;;5066936;28;20029;-35
2023/11/12 01:35:54;;;;;;;7.72;4.80;;;7.60;99.90;;;;;;5080098;28;20036;-35
2023/11/12 01:38:20;;;;;;;7.03;5.43;;;7.60;99.90;;;;;;5075575;28;20473;-36
2023/11/12 01:40:46;;;;;;;5.55;5.00;;;7.50;99.90;;;;;;5079148;28;20031;-36
2023/11/12 01:43:12;;;;;;;5.32;4.80;;;7.50;99.90;;;;;;5078737;28;20388;-36
2023/11/12 01:45:37;;;;;;;5.70;5.18;;;7.50;99.90;;;;;;5075936;28;20097;-36
2023/11/12 01:48:08;;;;;;;5.72;5.05;;;7.40;99.90;;;;;;5074946;28;20511;-36
2023/11/12 01:50:34;;;;;;;6.68;4.95;;;7.40;99.90;;;;;;5082703;28;20040;-35
2023/11/12 01:53:00;;;;;;;7.47;5.32;;;7.40;99.90;;;;;;5083799;28;20061;-36
2023/11/12 01:55:28;;;;;;;5.65;5.05;;;7.40;99.90;;;;;;5084306;28;20030;-35
2023/11/12 01:57:54;;;;;;;6.13;5.47;;;7.40;99.90;;;;;;5082927;28;20482;-34
2023/11/12 02:00:20;;;;;;;6.43;5.38;;;7.40;99.90;;;;;;5083623;28;20091;-35
2023/11/12 02:02:45;;;;;;;6.18;5.47;;;7.40;99.90;;;;;;5084090;28;20043;-33
2023/11/12 02:05:11;;;;;;;5.53;4.95;;;7.40;99.90;;;;;;5082542;28;20032;-35
2023/11/12 02:07:42;;;;;;;6.93;5.28;;;7.40;99.90;;;;;;5083901;28;20529;-35
2023/11/12 02:10:11;;;;;;;5.60;5.00;;;7.30;99.90;;;;;;5083182;28;20035;-34
2023/11/12 02:12:39;;;;;;;6.13;5.25;;;7.30;99.90;;;;;;5082831;28;20054;-35
2023/11/12 02:15:05;;;;;;;5.38;4.88;;;7.30;99.90;;;;;;5081981;28;20028;-35
2023/11/12 02:17:32;;;;;;;6.68;5.78;;;7.30;99.90;;;;;;5082967;28;20036;-36
2023/11/12 02:20:06;;;;;;;5.75;5.15;;;7.30;99.90;;;;;;5079907;28;20036;-35
2023/11/12 02:22:33;;;;;;;5.78;5.28;;;7.30;99.90;;;;;;5083344;28;20035;-35
2023/11/12 02:25:00;;;;;;;7.80;5.35;;;7.20;99.90;;;;;;5082821;28;20016;-35
2023/11/12 02:27:28;;;;;;;6.38;5.38;;;7.30;99.90;;;;;;5082413;28;20024;-36
2023/11/12 02:29:54;;;;;;;6.00;5.40;;;7.30;99.90;;;;;;5083028;28;20020;-36
2023/11/12 02:32:19;;;;;;;6.05;5.45;;;7.30;99.90;;;;;;5083455;28;20020;-36
2023/11/12 02:34:45;;;;;;;6.50;5.88;;;7.30;99.90;;;;;;5081182;28;20032;-38
2023/11/12 02:37:12;;;;;;;6.03;5.43;;;7.30;99.90;;;;;;5082634;28;20111;-36
2023/11/12 02:39:41;;;;;;;7.13;5.43;;;7.40;99.90;;;;;;5083475;28;20451;-35
2023/11/12 02:42:09;;;;;;;6.13;5.30;;;7.40;99.90;;;;;;5081845;28;20040;-36
2023/11/12 02:44:37;;;;;;;8.02;5.80;;;7.40;99.90;;;;;;5083237;28;20077;-36
2023/11/12 02:47:04;;;;;;;7.50;6.80;;;7.40;99.90;;;;;;5081909;28;20404;-36
2023/11/12 02:49:59;;;;;;;7.22;5.70;;;7.50;99.90;;;;;;5081816;28;20052;-37
2023/11/12 02:52:27;;;;;;;7.15;5.82;;;7.50;99.90;;;;;;5073605;28;20037;-35
2023/11/12 02:54:53;;;;;;;6.65;5.95;;;7.50;99.90;;;;;;5064108;28;20030;-36
2023/11/12 02:57:21;;;;;;;7.80;6.50;;;7.50;99.90;;;;;;5073688;28;20470;-35
2023/11/12 02:59:48;;;;;;;7.55;5.93;;;7.60;99.90;;;;;;5062705;28;20106;-36
2023/11/12 03:02:14;;;;;;;6.30;5.70;;;7.60;99.90;;;;;;5068168;28;20088;-36
2023/11/12 03:04:39;;;;;;;7.63;5.70;;;7.70;99.90;;;;;;5083124;28;20448;-36
2023/11/12 03:07:06;;;;;;;6.22;5.47;;;7.60;99.90;;;;;;5069742;28;20111;-35
2023/11/12 03:09:32;;;;;;;6.28;5.68;;;7.60;99.90;;;;;;5081848;28;20032;-36
2023/11/12 03:11:57;;;;;;;6.90;5.55;;;7.50;99.90;;;;;;5070601;28;20020;-37
2023/11/12 03:14:26;;;;;;;6.78;5.97;;;7.50;99.90;;;;;;5081316;28;20490;-36
2023/11/12 03:16:51;;;;;;;7.18;6.20;;;7.50;99.90;;;;;;5072356;28;20102;-35
2023/11/12 03:19:21;;;;;;;8.23;6.40;;;7.40;99.90;;;;;;5078610;28;20032;-35
2023/11/12 03:21:50;;;;;;;6.53;5.68;;;7.40;99.90;;;;;;5074485;28;20110;-35
2023/11/12 03:24:15;;;;;;;7.18;5.93;;;7.40;99.90;;;;;;5076149;28;20065;-35
2023/11/12 03:26:41;;;;;;;7.05;6.32;;;7.40;99.90;;;;;;5077255;28;20021;-36
2023/11/12 03:29:06;;;;;;;6.57;5.97;;;7.40;99.90;;;;;;5075005;28;20846;-36
2023/11/12 03:31:32;;;;;;;6.70;6.10;;;7.40;99.90;;;;;;5079271;28;20557;-36
2023/11/12 03:33:57;;;;;;;8.20;6.40;;;7.40;99.90;;;;;;5071986;28;20040;-36
2023/11/12 03:36:23;;;;;;;7.53;5.63;;;7.40;99.90;;;;;;5079500;28;20020;-36
2023/11/12 03:38:49;;;;;;;7.05;6.03;;;7.40;99.90;;;;;;5070196;28;20433;-36
2023/11/12 03:41:15;;;;;;;6.40;5.80;;;7.40;99.90;;;;;;5080669;28;20526;-36
2023/11/12 03:43:40;;;;;;;8.32;5.90;;;7.40;99.90;;;;;;5069524;28;20028;-36
2023/11/12 03:46:07;;;;;;;6.65;5.95;;;7.40;99.90;;;;;;5081826;28;20081;-36
2023/11/12 03:48:33;;;;;;;6.47;5.72;;;7.40;99.90;;;;;;5077276;28;20840;-35
2023/11/12 03:50:59;;;;;;;7.57;6.38;;;7.40;99.90;;;;;;5079949;28;20055;-37
2023/11/12 03:53:24;;;;;;;7.20;6.50;;;7.40;99.90;;;;;;5081582;28;20484;-35
2023/11/12 03:55:50;;;;;;;8.55;6.95;;;7.50;99.90;;;;;;5081647;28;20032;-36
2023/11/12 03:58:16;;;;;;;8.27;7.15;;;7.50;99.90;;;;;;5080429;28;20019;-45
2023/11/12 04:00:41;;;;;;;8.43;6.75;;;7.50;99.90;;;;;;5082506;28;20023;-35
2023/11/12 04:03:07;;;;;;;8.85;7.50;;;7.50;99.90;;;;;;5081256;28;20119;-36
2023/11/12 04:05:33;;;;;;;9.88;7.32;;;7.50;99.90;;;;;;5080801;28;20443;-36
2023/11/12 04:08:00;;;;;;;9.90;8.07;;;7.60;99.90;;;;;;5081726;28;20027;-45
2023/11/12 04:10:25;;;;;;;10.80;7.90;;;7.60;99.90;;;;;;5081093;28;20696;-36
2023/11/12 04:12:51;;;;;;;11.38;8.20;;;7.60;99.90;;;;;;5080902;28;20021;-36
2023/11/12 04:15:17;;;;;;;10.27;8.63;;;7.50;99.90;;;;;;5081192;28;20016;-36
2023/11/12 04:17:42;;;;;;;12.52;8.88;;;7.60;99.90;;;;;;5081647;28;20092;-36
2023/11/12 04:20:09;;;;;;;13.65;10.00;;;7.60;99.90;;;;;;5078047;28;20044;-35
2023/11/12 04:22:36;;;;;;;13.60;10.23;;;7.60;99.90;;;;;;5065123;28;20051;-36
2023/11/12 04:25:03;;;;;;;15.00;10.48;;;7.60;99.90;;;;;;5080748;28;20020;-35
2023/11/12 04:27:29;;;;;;;14.40;10.50;;;7.60;99.90;;;;;;5080120;28;20361;-35
2023/11/12 04:29:57;;;;;;;13.35;10.38;;;7.60;99.90;;;;;;5075255;28;20066;-36
2023/11/12 04:32:23;;;;;;;13.90;11.23;;;7.60;99.90;;;;;;5080729;28;20020;-36
2023/11/12 04:34:49;;;;;;;14.35;10.68;;;7.70;99.90;;;;;;5080494;28;20028;-36
2023/11/12 04:37:14;;;;;;;16.27;11.38;;;7.60;99.90;;;;;;5076922;28;20365;-36
2023/11/12 04:39:40;;;;;;;13.73;10.73;;;7.60;99.90;;;;;;5081474;28;20036;-36
2023/11/12 04:42:06;;;;;;;15.40;11.85;;;7.60;99.90;;;;;;5084820;28;20400;-37
2023/11/12 04:44:32;;;;;;;16.27;12.25;;;7.60;99.90;;;;;;5084877;28;20773;-40
2023/11/12 04:46:58;;;;;;;15.93;11.95;;;7.60;99.90;;;;;;5084647;28;20024;-36
2023/11/12 04:49:26;;;;;;;18.52;12.70;;;7.60;99.90;;;;;;5078449;28;20872;-36
2023/11/12 04:51:53;;;;;;;17.63;11.98;;;7.60;99.90;;;;;;5076154;28;20465;-36
2023/11/12 04:54:19;;;;;;;15.88;12.43;;;7.60;99.90;;;;;;5080702;28;20749;-37
2023/11/12 04:56:48;;;;;;;17.35;12.73;;;7.60;99.90;;;;;;5074125;28;20081;-35
2023/11/12 04:59:16;;;;;;;15.88;12.50;;;7.60;99.90;;;;;;5082010;28;20393;-36
2023/11/12 05:01:42;;;;;;;17.08;12.10;;;7.60;99.90;;;;;;5072653;28;20030;-36
2023/11/12 05:04:07;;;;;;;15.30;11.30;;;7.60;99.90;;;;;;5083315;28;20024;-35
2023/11/12 05:06:33;;;;;;;17.73;11.80;;;7.60;99.90;;;;;;5072709;28;20031;-36
2023/11/12 05:09:00;;;;;;;16.38;12.68;;;7.60;99.90;;;;;;5083938;28;20097;-36
2023/11/12 05:11:26;;;;;;;17.20;12.23;;;7.60;99.90;;;;;;5071994;28;20459;-36
2023/11/12 05:13:52;;;;;;;17.60;12.20;;;7.60;99.90;;;;;;5084979;28;20597;-36
2023/11/12 05:16:17;;;;;;;16.40;12.15;;;7.60;99.90;;;;;;5069951;28;20531;-37
2023/11/12 05:18:43;;;;;;;15.82;11.35;;;7.60;99.90;;;;;;5084811;28;20024;-36
2023/11/12 05:21:08;;;;;;;16.80;11.00;;;7.60;99.90;;;;;;5072715;28;20479;-36
2023/11/12 05:23:34;;;;;;;12.57;10.10;;;7.60;99.90;;;;;;5081482;28;20550;-35
2023/11/12 05:26:00;;;;;;;13.43;10.18;;;7.60;99.90;;;;;;5076042;28;20747;-35
2023/11/12 05:28:29;;;;;;;12.70;9.82;;;7.60;99.90;;;;;;5079181;28;20415;-35
2023/11/12 05:30:57;;;;;;;12.73;10.43;;;7.60;99.90;;;;;;5076947;28;20033;-36
2023/11/12 05:33:23;;;;;;;11.52;9.48;;;7.60;99.90;;;;;;5076071;28;20217;-35
2023/11/12 05:35:49;;;;;;;10.73;8.82;;;7.50;99.90;;;;;;5079490;28;20576;-36
2023/11/12 05:38:14;;;;;;;11.13;8.88;;;7.50;99.90;;;;;;5074248;28;20024;-41
2023/11/12 05:40:43;;;;;;;12.93;10.00;;;7.50;99.90;;;;;;5081833;28;20952;-36
2023/11/12 05:43:10;;;;;;;10.52;8.90;;;7.50;99.90;;;;;;5060210;28;20028;-37
2023/11/12 05:45:36;;;;;;;12.02;9.10;;;7.50;99.90;;;;;;5082014;28;20017;-35
2023/11/12 05:48:01;;;;;;;12.82;10.05;;;7.40;99.90;;;;;;5072612;28;20040;-35
2023/11/12 05:50:27;;;;;;;12.40;9.82;;;7.40;99.90;;;;;;5082611;28;20039;-36
2023/11/12 05:52:53;;;;;;;13.68;10.25;;;7.40;99.90;;;;;;5082215;28;20058;-37
2023/11/12 05:55:19;;;;;;;12.48;10.15;;;7.40;99.90;;;;;;5082875;28;20177;-39
2023/11/12 05:57:44;;;;;;;15.18;9.70;;;7.40;99.90;;;;;;5082580;28;20131;-37
2023/11/12 06:00:11;;;;;;;11.82;9.98;;;7.30;99.90;;;;;;5083607;28;20024;-36
2023/11/12 06:02:37;;;;;;;11.35;9.48;;;7.30;99.90;;;;;;5083835;28;20065;-36
2023/11/12 06:05:05;;;;;;;11.93;9.52;;;7.30;99.90;;;;;;5082672;28;20027;-36
2023/11/12 06:07:31;;;;;;;12.32;9.90;;;7.30;99.90;;;;;;5084120;28;20279;-36
2023/11/12 06:09:57;;;;;;;13.05;10.65;;;7.30;99.90;;;;;;5082481;28;20476;-36
2023/11/12 06:12:22;;;;;;;11.82;10.13;;;7.30;99.90;;;;;;5082710;28;20016;-37
2023/11/12 06:14:48;;;;;;;12.50;9.95;;;7.20;99.90;;;;;;5083519;28;20375;-36
2023/11/12 06:17:16;;;;;;;13.02;10.52;;;7.20;99.90;;;;;;5082309;28;20077;-36
2023/11/12 06:19:42;;;;;;;12.63;10.55;;;7.10;99.90;;;;;;5083331;28;20028;-36
2023/11/12 06:22:07;;;;;;;13.25;10.18;;;7.10;99.90;;;;;;5082967;28;20577;-36
2023/11/12 06:24:33;;;;;;;12.73;10.23;;;7.00;99.90;;;;;;5079722;28;20101;-36
2023/11/12 06:26:58;;;;;;;13.98;10.57;;;7.00;99.90;;;;;;5082578;28;20109;-37
2023/11/12 06:29:24;;;;;;;13.05;10.23;;;6.90;99.90;;;;;;5082518;28;20226;-36
2023/11/12 06:31:51;;;;;;;12.73;9.48;;;6.90;99.90;;;;;;5082989;28;20076;-36
2023/11/12 06:34:16;;;;;;;15.00;10.95;;;6.80;99.90;;;;;;5081060;28;20020;-35
2023/11/12 06:36:42;;;;;;;12.10;10.13;;;6.80;99.90;;;;;;5083614;28;20031;-35
2023/11/12 06:39:08;;;;;;;13.32;10.75;;;6.80;99.90;;;;;;5082063;28;20016;-36
2023/11/12 06:41:33;;;;;;;12.90;10.75;;;6.80;99.90;;;;;;5082356;28;20044;-36
2023/11/12 06:43:59;;;;;;;12.68;10.70;;;6.70;99.90;;;;;;5082297;28;20026;-36
2023/11/12 06:46:25;;;;;;;11.95;10.38;;;6.70;99.90;;;;;;5081718;28;20032;-36
2023/11/12 06:48:51;;;;;;;14.13;10.70;;;6.70;99.90;;;;;;5073873;28;20071;-35
2023/11/12 06:51:21;;;;;;;13.48;9.95;;;6.70;99.90;;;;;;5078061;28;20028;-36
2023/11/12 06:53:47;;;;;;;13.13;10.35;;;6.70;99.90;;;;;;5074899;28;20033;-35
2023/11/12 06:56:12;;;;;;;13.07;9.80;;;6.70;99.90;;;;;;5076155;28;20069;-37
2023/11/12 06:58:40;;;;;;;13.40;10.73;;;6.70;99.90;;;;;;5079087;28;20028;-36
2023/11/12 07:01:05;;;;;;;14.15;9.60;;;6.70;99.90;;;;;;5073461;28;20428;-36
2023/11/12 07:03:31;;;;;;;13.30;10.18;;;6.70;99.90;;;;;;5080691;28;20093;-36
2023/11/12 07:05:56;;;;;;;12.45;10.30;;;6.80;99.90;;;;;;5071529;28;20059;-36
2023/11/12 07:08:25;;;;;;;12.10;10.23;;;6.80;99.90;;;;;;5079881;28;20107;-36
2023/11/12 07:10:54;;;;;;;11.80;9.90;;;6.80;99.90;;;;;;5070788;28;20020;-35
2023/11/12 07:13:20;;;;;;;13.48;10.13;;;6.80;99.90;;;;;;5080692;28;20035;-36
2023/11/12 07:15:45;;;;;;;11.38;9.75;;;6.90;99.90;;;;;;5069700;28;20024;-35
2023/11/12 07:18:11;;;;;;;12.02;10.30;;;6.90;99.90;;;;;;5081436;28;20020;-37
2023/11/12 07:20:37;;;;;;;11.93;10.02;;;7.00;99.90;;;;;;5069600;28;20029;-36
2023/11/12 07:23:03;;;;;;;13.75;10.27;;;7.00;99.90;;;;;;5081724;28;20031;-36
2023/11/12 07:25:29;;;;;;;13.90;10.75;;;7.00;99.90;;;;;;5069118;28;20476;-36
2023/11/12 07:27:55;;;;;;;12.50;10.20;;;7.10;99.90;;;;;;5081419;28;20135;-36
2023/11/12 07:30:21;;;;;;;13.73;10.15;;;7.10;99.90;;;;;;5071331;28;20708;-35
2023/11/12 07:32:46;;;;;;;12.43;10.40;;;7.10;99.90;;;;;;5078946;28;20031;-35
2023/11/12 07:35:13;;;;;;;11.52;9.57;;;7.20;99.90;;;;;;5074821;28;20019;-36
2023/11/12 07:37:41;;;;;;;11.73;9.95;;;7.20;99.90;;;;;;5076273;28;20024;-36
2023/11/12 07:40:10;;;;;;;12.82;10.10;;;7.20;99.90;;;;;;5076953;28;20024;-35
2023/11/12 07:42:39;;;;;;;12.50;9.77;;;7.20;99.90;;;;;;5073983;28;20166;-36
2023/11/12 07:45:09;;;;;;;11.38;10.15;;;7.20;99.90;;;;;;5078290;28;20043;-35
2023/11/12 07:47:36;;;;;;;13.18;10.48;;;7.20;99.90;;;;;;5073020;28;20075;-36
2023/11/12 07:50:02;;;;;;;11.85;10.23;;;7.30;99.90;;;;;;5079270;28;20815;-36
2023/11/12 07:52:27;;;;;;;11.23;9.95;;;7.30;99.90;;;;;;5059322;28;20028;-36
2023/11/12 07:54:53;;;;;;;13.10;10.25;;;7.30;99.90;;;;;;5080034;28;20024;-45
2023/11/12 07:57:21;;;;;;;11.98;10.48;;;7.30;99.90;;;;;;5069505;28;20409;-36
2023/11/12 07:59:47;;;;;;;11.95;10.57;;;7.40;99.90;;;;;;5081662;28;20020;-37
2023/11/12 08:02:12;;;;;;;13.07;10.38;;;7.40;99.90;;;;;;5068312;28;20375;-35
2023/11/12 08:04:38;;;;;;;12.48;10.50;;;7.40;99.90;;;;;;5081117;28;20031;-36
2023/11/12 08:07:04;;;;;;;12.90;9.93;;;7.50;99.90;;;;;;5067862;28;20033;-37
2023/11/12 08:09:29;;;;;;;11.65;9.45;;;7.50;99.90;;;;;;5081135;28;20066;-35
2023/11/12 08:11:56;;;;;;;11.73;9.35;;;7.50;99.90;;;;;;5067824;28;20757;-37
2023/11/12 08:14:21;;;;;;;12.05;9.95;;;7.50;99.90;;;;;;5079891;28;20031;-38
2023/11/12 08:16:47;;;;;;;10.95;9.10;;;7.50;99.90;;;;;;5072139;28;20478;-36
2023/11/12 08:19:13;;;;;;;14.15;10.32;;;7.50;99.90;;;;;;5076250;28;20458;-36
2023/11/12 08:21:38;;;;;;;11.88;9.85;;;7.50;99.90;;;;;;5074287;28;20491;-36
2023/11/12 08:24:05;;;;;;;13.20;10.02;;;7.50;99.90;;;;;;5074858;28;20028;-36
2023/11/12 08:26:32;;;;;;;15.60;10.40;;;7.50;99.90;;;;;;5076790;28;20032;-36
2023/11/12 08:28:58;;;;;;;13.35;10.40;;;7.60;99.90;;;;;;5072154;28;20123;-35
2023/11/12 08:31:24;;;;;;;12.15;9.10;;;7.60;99.90;;;;;;5079210;28;20016;-35
2023/11/12 08:33:49;;;;;;;12.82;9.82;;;7.60;99.90;;;;;;5069705;28;20538;-36
2023/11/12 08:36:15;;;;;;;12.40;9.95;;;7.60;99.90;;;;;;5056672;28;20051;-36
2023/11/12 08:38:41;;;;;;;12.95;10.45;;;7.70;99.90;;;;;;5070020;28;20035;-36
2023/11/12 08:41:08;;;;;;;10.90;9.35;;;7.70;99.90;;;;;;5042144;28;20033;-35
2023/11/12 08:43:33;;;;;;;12.52;10.40;;;7.80;99.90;;;;;;5061506;28;20433;-35
2023/11/12 08:45:59;;;;;;;12.75;10.50;;;7.80;99.90;;;;;;5055359;28;20021;-35
2023/11/12 08:48:31;;;;;;;13.23;9.73;;;7.80;99.90;;;;;;5073713;28;20419;-35
2023/11/12 08:50:58;;;;;;;13.52;9.70;;;7.90;99.90;;;;;;5049002;28;20140;-35
2023/11/12 08:53:24;;;;;;;13.55;9.88;;;7.90;99.90;;;;;;5069560;28;20483;-36
2023/11/12 08:55:49;;;;;;;14.23;11.40;;;7.90;99.90;;;;;;5067505;28;20039;-36
2023/11/12 08:58:15;;;;;;;12.15;9.80;;;7.90;99.90;;;;;;5070067;28;20102;-36
2023/11/12 09:00:40;;;;;;;13.25;10.57;;;8.00;99.90;;;;;;5077038;28;20443;-37
2023/11/12 09:03:06;;;;;;;14.93;10.57;;;8.00;99.90;;;;;;5073703;28;20520;-36
2023/11/12 09:05:32;;;;;;;12.98;10.43;;;8.00;99.90;;;;;;5074075;28;20562;-37
2023/11/12 09:07:57;;;;;;;11.27;9.43;;;8.00;99.90;;;;;;5075694;28;20031;-37
2023/11/12 09:10:23;;;;;;;11.80;9.85;;;8.00;99.90;;;;;;5072370;28;20036;-36
2023/11/12 09:12:48;;;;;;;13.88;10.20;;;8.00;99.90;;;;;;5079656;28;20615;-34
2023/11/12 09:15:17;;;;;;;13.05;10.13;;;8.00;99.90;;;;;;5068529;28;20062;-37
2023/11/12 09:17:43;;;;;;;11.45;10.00;;;8.10;99.90;;;;;;5067974;28;20417;-37
2023/11/12 09:20:13;;;;;;;13.43;9.82;;;8.10;99.90;;;;;;5056439;28;20029;-36
2023/11/12 09:22:40;;;;;;;13.98;10.23;;;8.10;99.90;;;;;;5042540;28;20033;-36
2023/11/12 09:25:06;;;;;;;12.30;9.50;;;8.10;99.90;;;;;;5075663;28;20467;-36
2023/11/12 09:27:32;;;;;;;11.05;9.82;;;8.20;99.90;;;;;;5056672;28;20067;-36
2023/11/12 09:29:59;;;;;;;12.13;9.60;;;8.20;99.90;;;;;;5075487;28;20774;-35
2023/11/12 09:32:25;;;;;;;12.82;9.95;;;8.20;99.90;;;;;;5083879;28;20647;-36
2023/11/12 09:34:50;;;;;;;10.93;9.02;;;8.20;99.90;;;;;;5082280;28;20054;-37
2023/11/12 09:37:19;;;;;;;12.48;10.30;;;8.30;99.90;;;;;;5063017;28;20025;-35
2023/11/12 09:39:45;;;;;;;11.57;9.52;;;8.30;99.90;;;;;;5073910;28;20566;-35
2023/11/12 09:42:12;;;;;;;12.18;9.60;;;8.30;99.90;;;;;;5066006;28;20098;-36
2023/11/12 09:44:41;;;;;;;11.13;9.20;;;8.30;99.90;;;;;;5068320;28;20024;-37
2023/11/12 09:47:14;;;;;;;11.82;9.40;;;8.30;99.90;;;;;;5068168;28;20032;-36
2023/11/12 09:49:40;;;;;;;12.50;9.57;;;8.30;99.90;;;;;;5063230;28;20044;-37
2023/11/12 09:52:06;;;;;;;10.77;9.02;;;8.30;99.90;;;;;;5063386;28;20111;-36
2023/11/12 09:54:36;;;;;;;11.80;9.82;;;8.30;99.90;;;;;;5063954;28;20115;-44
2023/11/12 09:57:01;;;;;;;12.23;9.30;;;8.40;99.90;;;;;;5063440;28;20109;-36
2023/11/12 09:59:27;;;;;;;11.50;9.45;;;8.40;99.90;;;;;;5061512;28;20021;-41
2023/11/12 10:01:53;;;;;;;10.30;8.43;;;8.40;99.90;;;;;;5058661;28;20089;-35
2023/11/12 10:04:18;;;;;;;9.68;7.85;;;8.50;99.90;;;;;;5062824;28;20024;-35
2023/11/12 10:06:46;;;;;;;9.05;8.07;;;8.50;99.90;;;;;;5063609;28;20094;-36
2023/11/12 10:09:15;;;;;;;11.38;9.35;;;8.60;99.90;;;;;;5062218;28;20482;-37
2023/11/12 10:11:41;;;;;;;9.63;8.27;;;8.70;99.90;;;;;;5062799;28;20391;-36
2023/11/12 10:14:14;;;;;;;9.98;8.50;;;8.70;99.90;;;;;;5063622;28;20017;-36
2023/11/12 10:16:40;;;;;;;9.65;8.30;;;8.70;99.90;;;;;;5063327;28;20498;-36
2023/11/12 10:19:12;;;;;;;8.73;7.10;;;8.70;99.90;;;;;;5062603;28;20021;-35
2023/11/12 10:21:55;;;;;;;10.38;8.05;;;8.80;99.90;;;;;;5063388;28;20032;-36
2023/11/12 10:24:27;;;;;;;11.40;7.72;;;8.80;99.90;;;;;;5063810;28;20024;-35
2023/11/12 10:27:02;;;;;;;9.52;7.05;;;8.80;99.90;;;;;;5063734;28;20041;-36
2023/11/12 10:29:28;;;;;;;9.25;7.43;;;8.80;99.90;;;;;;5057802;28;20024;-36
2023/11/12 10:31:54;;;;;;;9.27;7.53;;;8.90;99.90;;;;;;5060050;28;20031;-36
2023/11/12 10:34:20;;;;;;;8.45;7.22;;;8.90;99.90;;;;;;5061728;28;20054;-36
2023/11/12 10:37:10;;;;;;;9.18;7.28;;;8.90;99.90;;;;;;5062988;28;20040;-36
2023/11/12 10:39:41;;;;;;;9.60;7.35;;;8.90;99.90;;;;;;5042501;28;20112;-36
2023/11/12 10:42:23;;;;;;;8.68;6.65;;;8.90;99.90;;;;;;5058824;28;20037;-37
2023/11/12 10:44:52;;;;;;;9.13;6.80;;;8.90;99.90;;;;;;5043370;28;20386;-36
2023/11/12 10:47:22;;;;;;;8.85;6.97;;;8.90;99.90;;;;;;5058554;28;20066;-37
2023/11/12 10:49:48;;;;;;;9.60;6.70;;;8.90;99.90;;;;;;5063238;28;20131;-36
2023/11/12 10:52:14;;;;;;;7.45;5.70;;;8.90;99.90;;;;;;5072512;28;20173;-36
2023/11/12 10:54:41;;;;;;;7.57;5.97;;;8.90;99.90;;;;;;5064538;28;20744;-36
2023/11/12 10:57:07;;;;;;;7.28;5.50;;;9.00;99.90;;;;;;5070814;28;20082;-35
2023/11/12 10:59:37;;;;;;;5.60;4.50;;;9.00;99.90;;;;;;5065667;28;20452;-35
2023/11/12 11:02:08;;;;;;;5.22;4.50;;;9.10;99.90;;;;;;5068336;28;20403;-36
2023/11/12 11:04:34;;;;;;;4.93;4.07;;;9.10;99.90;;;;;;5067183;28;20024;-36
2023/11/12 11:07:00;;;;;;;5.53;4.07;;;9.10;99.90;;;;;;5065932;28;20066;-35
2023/11/12 11:09:28;;;;;;;5.57;4.10;;;9.10;99.90;;;;;;5070093;28;20091;-35
2023/11/12 11:11:54;;;;;;;5.07;4.20;;;9.20;99.90;;;;;;5064066;28;20025;-35
2023/11/12 11:14:24;;;;;;;5.30;4.60;;;9.20;99.90;;;;;;5071494;28;20060;-37
2023/11/12 11:16:52;;;;;;;4.82;4.00;;;9.30;99.90;;;;;;5063514;28;20024;-37
2023/11/12 11:19:38;;;;;;;4.60;4.07;;;9.30;99.90;;;;;;5072547;28;20031;-36
2023/11/12 11:22:23;;;;;;;5.10;4.38;;;9.30;99.90;;;;;;5061369;28;20111;-37
2023/11/12 11:24:56;;;;;;;4.78;3.55;;;9.30;99.90;;;;;;5063444;28;20040;-36
2023/11/12 11:27:25;;;;;;;4.70;4.20;;;9.40;99.90;;;;;;5079542;28;20069;-36
2023/11/12 11:30:06;;;;;;;5.63;4.70;;;9.40;99.90;;;;;;5071365;28;20059;-35
2023/11/12 11:32:32;;;;;;;5.13;4.60;;;9.40;99.90;;;;;;5079621;28;20040;-36
2023/11/12 11:35:00;;;;;;;5.15;4.32;;;9.40;99.90;;;;;;5070028;28;20459;-36
2023/11/12 11:38:09;;;;;;;4.90;4.40;;;9.50;99.90;;;;;;5080388;28;20048;-38
2023/11/12 11:40:39;;;;;;;5.20;4.70;;;9.50;99.90;;;;;;5068156;28;20028;-38
2023/11/12 11:43:23;;;;;;;5.38;4.85;;;9.50;99.90;;;;;;5077514;28;20032;-35
2023/11/12 11:46:15;;;;;;;8.18;5.90;;;9.50;99.90;;;;;;5075397;28;20589;-36
2023/11/12 11:48:46;;;;;;;6.70;5.97;;;9.50;99.90;;;;;;5063112;28;20155;-37
2023/11/12 11:51:43;;;;;;;7.03;5.25;;;9.50;99.90;;;;;;5076317;28;20182;-37
2023/11/12 11:54:14;;;;;;;7.78;6.25;;;9.50;99.90;;;;;;5071607;28;20029;-36
2023/11/12 11:56:40;;;;;;;6.30;5.65;;;9.50;99.90;;;;;;5078923;28;20020;-34
2023/11/12 11:59:05;;;;;;;7.05;4.88;;;9.60;99.90;;;;;;5073442;28;20024;-36
2023/11/12 12:01:42;;;;;;;6.18;5.05;;;9.60;99.90;;;;;;5076224;28;20032;-36
2023/11/12 12:04:09;;;;;;;5.82;4.60;;;9.70;99.90;;;;;;5074010;28;20027;-36
2023/11/12 12:06:46;;;;;;;8.27;5.43;;;9.70;99.90;;;;;;5075559;28;20027;-37
2023/11/12 12:09:17;;;;;;;6.07;5.07;;;9.70;99.90;;;;;;5075396;28;20078;-37
2023/11/12 12:11:46;;;;;;;5.63;5.00;;;9.80;99.90;;;;;;5074069;28;20655;-36
2023/11/12 12:14:14;;;;;;;5.22;4.72;;;9.80;99.90;;;;;;5076238;28;20032;-37
2023/11/12 12:16:40;;;;;;;6.57;5.85;;;9.80;99.90;;;;;;5072809;28;20055;-36
2023/11/12 12:19:08;;;;;;;5.82;5.20;;;9.80;99.90;;;;;;5078557;28;20024;-36
2023/11/12 12:21:36;;;;;;;6.10;5.43;;;9.80;99.90;;;;;;5070663;28;20028;-37
2023/11/12 12:24:03;;;;;;;6.70;5.80;;;9.80;99.90;;;;;;5078956;28;20023;-37
2023/11/12 12:26:32;;;;;;;6.38;5.78;;;9.90;99.90;;;;;;5069635;28;20047;-37
2023/11/12 12:28:58;;;;;;;5.97;5.38;;;9.90;99.90;;;;;;5079089;28;20135;-37
2023/11/12 12:31:29;;;;;;;6.97;6.28;;;9.90;99.90;;;;;;5068565;28;20020;-38
2023/11/12 12:34:03;;;;;;;6.63;5.70;;;9.90;99.90;;;;;;5080814;28;20050;-37
2023/11/12 12:36:29;;;;;;;6.32;5.53;;;9.90;99.90;;;;;;5067929;28;20020;-36
2023/11/12 12:38:59;;;;;;;8.63;5.82;;;9.90;99.90;;;;;;5079729;28;20486;-37
2023/11/12 12:41:25;;;;;;;5.50;5.00;;;9.90;99.90;;;;;;5067024;28;20949;-36
2023/11/12 12:43:52;;;;;;;7.22;5.40;;;9.90;99.90;;;;;;5080999;28;20742;-36
2023/11/12 12:46:20;;;;;;;5.70;4.70;;;9.90;99.90;;;;;;5067312;28;20376;-35
2023/11/12 12:48:53;;;;;;;5.78;5.05;;;9.80;99.90;;;;;;5081184;28;20063;-36
2023/11/12 12:51:21;;;;;;;;;;;9.70;99.90;;;;;;5069331;28;20495;-37